Date,TemperatureHighF,TemperatureAvgF,TemperatureLowF,DewpointHighF,DewpointAvgF,DewpointLowF,HumidityHigh,HumidityAvg,HumidityLow,PressureMaxIn,PressureMinIn,WindSpeedMaxMPH,WindSpeedAvgMPH,GustSpeedMaxMPH,PrecipitationSumIn
2012-1-1,60,50,39,52,43,35,97,79,57,30.12,29.73,17,1,21,0.00
2012-1-2,49,39,32,35,25,20,68,56,48,29.94,29.80,18,4,20,0.00
2012-1-3,32,28,22,22,16,6,72,60,38,30.26,29.93,24,4,24,0.00
2012-1-4,34,26,17,22,14,4,69,59,52,30.31,29.96,11,1,13,0.00
2012-1-5,48,39,32,32,28,22,82,64,51,30.01,29.93,13,1,15,0.00
2012-1-6,64,49,35,40,35,28,79,61,41,29.94,29.80,9,0,11,0.00
2012-1-7,67,54,42,50,40,32,72,59,48,30.02,29.77,8,1,10,0.00
2012-1-8,51,46,39,36,33,28,68,61,49,30.32,30.02,11,1,14,0.00
2012-1-9,40,36,34,34,30,26,99,81,64,30.32,30.02,6,0,8,0.02
2012-1-10,54,41,32,41,36,32,100,84,56,30.04,29.96,9,0,9,0.13
2012-1-11,50,42,34,50,40,32,100,95,79,30.02,29.48,13,1,13,0.56
2012-1-12,60,52,43,53,49,43,100,91,76,29.52,29.36,11,1,13,0.58
2012-1-13,53,39,30,50,28,20,95,66,48,29.96,29.30,16,2,24,0.04
2012-1-14,38,32,27,24,21,18,74,63,52,30.14,29.96,14,1,14,0.00
2012-1-15,34,30,26,20,17,13,73,58,43,30.57,30.14,14,1,14,0.00
2012-1-16,42,33,23,36,24,14,88,68,54,30.58,30.14,18,1,20,0.03
2012-1-17,59,50,40,55,46,35,99,86,73,30.14,29.67,22,2,22,0.34
2012-1-18,58,41,30,55,28,19,92,61,49,30.17,29.68,22,4,27,0.00
2012-1-19,41,34,25,29,23,18,76,64,55,30.21,29.92,11,1,15,0.00
2012-1-20,39,35,28,31,22,12,94,61,42,30.27,29.96,13,1,14,0.00
2012-1-21,33,31,28,32,30,26,98,95,89,30.28,29.93,10,0,10,0.01
2012-1-22,32,31,30,31,29,27,100,91,88,30.45,30.27,9,0,9,0.00
2012-1-23,44,36,32,44,36,31,100,99,97,30.34,29.91,11,0,19,0.31
2012-1-24,57,49,43,49,44,39,100,86,64,30.18,29.91,6,0,7,0.00
2012-1-25,51,44,38,39,36,33,84,75,60,30.36,30.18,11,1,11,0.00
2012-1-26,57,49,41,55,45,37,96,88,77,30.19,29.71,6,0,7,0.01
2012-1-27,64,56,44,62,50,34,100,83,62,29.99,29.43,21,4,23,0.58
2012-1-28,55,45,35,40,34,22,89,65,41,30.17,29.90,15,2,18,0.58
2012-1-29,50,41,31,33,21,16,77,45,34,30.27,30.04,22,1,23,0.00
2012-1-30,48,40,33,29,23,21,68,51,35,30.39,30.16,19,1,22,0.00
2012-1-31,67,53,40,40,35,27,69,51,37,30.22,30.05,16,1,19,0.00
2012-2-1,70,59,50,53,46,39,82,63,48,30.06,29.94,13,1,13,0.04
2012-2-2,58,51,43,53,45,34,100,80,60,30.31,29.94,16,2,17,0.13
2012-2-3,50,43,37,36,33,31,81,69,57,30.49,30.30,10,1,12,0.00
2012-2-4,45,39,36,38,36,32,100,90,75,30.35,30.09,7,0,9,0.11
2012-2-5,43,39,35,37,34,31,99,83,70,30.22,30.05,8,0,8,0.00
2012-2-6,54,41,30,37,33,28,97,75,49,30.25,30.04,8,0,9,0.00
2012-2-7,55,48,40,39,35,32,79,62,51,30.22,30.04,8,2,15,0.00
2012-2-8,43,39,36,37,34,32,98,84,69,30.25,30.10,5,0,8,0.12
2012-2-9,46,39,33,36,29,25,98,68,49,30.26,30.12,13,2,17,0.12
2012-2-10,48,41,34,38,31,26,89,69,54,30.17,29.88,8,0,9,0.00
2012-2-11,42,35,23,38,30,15,99,84,57,29.88,29.62,26,3,28,0.13
2012-2-12,32,27,22,20,16,13,92,63,52,30.13,29.86,23,6,23,0.13
2012-2-13,48,36,22,26,21,16,80,56,37,30.18,30.06,11,0,13,0.00
2012-2-14,56,46,38,38,32,23,67,57,50,30.07,29.91,11,0,16,0.00
2012-2-15,54,48,44,38,37,35,77,66,53,30.27,29.98,14,2,19,0.00
2012-2-16,47,44,42,45,41,35,99,87,71,30.27,29.99,6,0,7,0.11
2012-2-17,53,46,40,43,37,33,100,73,48,30.08,29.97,15,2,16,0.01
2012-2-18,59,48,34,42,35,29,85,62,47,30.11,29.86,13,1,17,0.00
2012-2-19,45,40,34,35,30,26,98,68,52,30.09,29.87,12,1,15,0.05
2012-2-20,49,40,34,35,29,26,98,65,45,30.34,29.94,10,1,11,0.03
2012-2-21,50,41,31,40,33,27,92,73,57,30.33,29.84,14,1,15,0.00
2012-2-22,64,53,41,47,41,39,92,67,43,29.85,29.45,12,1,13,0.00
2012-2-23,61,52,47,50,47,45,96,84,59,29.59,29.44,8,1,8,0.00
2012-2-26,43,40,36,31,28,27,81,64,52,30.41,30.39,1,0,7,0.00
2012-2-27,65,49,34,45,36,29,89,64,39,30.40,30.13,13,1,14,0.00
2012-2-28,56,48,40,44,31,28,80,53,36,30.45,30.23,12,1,12,0.00
2012-2-29,57,46,40,57,44,31,100,93,64,30.31,29.66,11,0,17,1.41
2012-3-1,69,59,46,59,48,35,100,71,45,29.96,29.60,15,1,16,0.01
2012-3-2,56,47,38,48,41,34,100,81,56,30.04,29.66,10,1,12,0.34
2012-3-3,61,53,48,50,41,28,100,71,34,29.70,29.51,15,2,15,0.10
2012-3-4,50,44,37,33,28,24,65,55,43,29.89,29.65,18,3,20,0.10
2012-3-5,44,37,31,32,26,20,78,66,51,30.45,29.89,17,2,18,0.00
2012-3-6,50,39,29,34,27,21,80,61,43,30.67,30.45,14,1,14,0.00
2012-3-7,68,54,39,51,41,32,77,64,47,30.55,30.32,16,2,19,0.00
2012-3-8,73,64,54,58,54,49,90,71,53,30.32,29.92,24,3,25,0.00
2012-3-9,67,51,42,57,34,25,88,53,37,30.34,29.92,19,4,20,0.00
2012-3-10,49,40,34,26,23,20,65,51,37,30.54,30.34,12,1,15,0.00
2012-3-11,65,49,34,40,34,25,84,59,38,30.55,30.36,9,1,12,0.00
2012-3-12,73,59,44,56,44,34,70,58,43,30.37,30.09,12,1,12,0.00
2012-3-13,81,69,58,64,58,54,93,70,48,30.10,29.94,13,1,13,0.01
2012-3-14,80,70,62,55,53,49,71,55,37,30.17,30.02,11,1,11,0.00
2012-3-15,86,68,56,65,56,50,88,66,36,30.17,30.05,9,1,13,0.02
2012-3-16,60,55,51,58,54,50,100,95,85,30.17,30.11,6,0,8,0.01
2012-3-17,76,62,53,63,58,53,100,86,63,30.28,30.16,9,1,9,0.01
2012-3-18,69,58,52,61,56,52,100,92,75,30.34,30.18,8,0,8,0.00
2012-3-19,76,65,55,66,60,55,100,84,66,30.19,30.09,9,0,10,0.00
2012-3-20,73,66,62,67,63,61,100,91,77,30.23,30.14,8,0,8,0.00
2012-3-21,68,62,59,65,61,59,100,96,86,30.30,30.21,6,0,7,0.00
2012-3-22,80,67,60,68,64,60,100,90,66,30.25,30.05,8,0,11,0.00
2012-3-23,84,71,60,68,63,60,100,79,52,30.08,29.92,7,0,8,0.00
2012-3-24,68,61,56,63,60,56,100,97,84,29.93,29.81,6,1,6,0.21
2012-3-25,63,56,52,58,55,52,100,96,82,29.82,29.72,7,1,7,0.11
2012-3-26,61,56,44,58,40,19,92,57,34,30.18,29.75,20,4,23,0.01
2012-3-27,56,45,35,31,22,17,57,41,29,30.35,30.18,12,1,12,0.00
2012-3-28,75,60,45,62,46,31,79,62,47,30.18,29.64,12,1,13,0.01
2012-3-29,69,60,51,59,44,38,72,56,44,30.00,29.66,15,2,17,0.00
2012-3-30,55,49,42,46,40,35,92,72,60,30.10,29.82,5,0,7,0.00
2012-3-31,64,54,48,56,50,45,97,86,72,29.88,29.71,9,1,9,0.00
2012-4-1,65,54,47,54,48,44,94,81,62,29.89,29.55,9,0,10,0.02
2012-4-2,61,54,47,56,42,34,100,65,40,29.90,29.52,14,2,14,0.09
2012-4-3,71,58,42,39,35,29,70,43,26,30.02,29.76,10,0,10,0.09
2012-4-4,75,64,53,59,48,34,74,56,34,29.76,29.54,13,1,15,0.00
2012-4-5,64,55,47,39,36,33,67,49,35,29.87,29.68,9,0,10,0.00
2012-4-6,61,52,42,39,32,28,72,50,33,30.06,29.86,11,1,13,0.00
2012-4-7,65,54,43,32,29,25,51,38,29,30.19,30.03,16,2,17,0.00
2012-4-8,72,60,48,44,35,27,53,40,30,30.09,29.79,17,2,22,0.00
2012-4-9,67,59,51,44,38,30,63,47,39,29.91,29.74,20,3,24,0.00
2012-4-10,66,55,45,46,38,29,85,56,32,29.87,29.66,13,2,15,0.00
2012-4-11,53,46,39,38,33,29,77,62,48,30.02,29.85,17,2,18,0.00
2012-4-12,60,50,42,41,37,34,83,61,41,30.16,30.01,12,2,16,0.00
2012-4-13,65,56,46,41,37,35,68,51,37,30.26,30.14,11,1,12,0.00
2012-4-14,76,61,45,51,45,40,90,59,34,30.24,30.02,10,0,15,0.00
2012-4-15,86,72,61,63,57,50,74,59,45,30.06,29.96,9,0,13,0.00
2012-4-16,89,77,64,70,65,61,93,68,46,30.03,29.88,19,1,19,0.00
2012-4-17,75,70,64,64,51,42,71,52,38,30.19,29.94,17,2,17,0.00
2012-4-18,64,56,52,51,47,42,97,73,46,30.24,30.12,7,0,9,0.06
2012-4-19,72,59,49,57,53,49,100,81,56,30.12,29.98,4,0,5,0.01
2012-4-20,71,60,50,60,55,50,100,87,64,30.01,29.79,5,0,8,0.00
2012-4-21,83,66,56,67,60,54,100,85,49,29.80,29.58,22,1,22,0.19
2012-4-22,56,50,46,54,49,46,100,97,92,29.77,29.36,16,2,18,0.24
2012-4-23,48,44,40,46,42,40,100,94,78,29.54,29.31,16,2,16,0.06
2012-4-24,64,52,40,43,38,32,99,64,34,29.72,29.50,10,0,14,0.02
2012-4-25,69,57,43,44,40,35,87,56,34,29.85,29.71,11,1,14,0.00
2012-4-26,66,60,56,62,56,43,100,88,57,29.85,29.58,10,0,11,0.00
2012-4-27,63,56,49,58,40,35,82,57,39,30.16,29.69,15,3,18,0.00
2012-4-28,58,49,44,47,39,32,98,69,45,30.28,30.12,6,0,6,0.00
2012-4-29,70,56,45,49,46,42,100,73,37,30.24,30.10,7,0,8,0.00
2012-4-30,67,57,50,57,48,37,89,71,57,30.29,30.08,9,0,9,0.00
2012-5-1,83,70,60,70,64,53,100,81,61,30.09,29.94,10,0,11,0.01
2012-5-2,75,67,59,68,64,57,100,91,79,30.09,29.93,6,0,7,0.06
2012-5-3,82,67,56,72,63,55,100,88,64,30.15,29.99,8,0,9,0.04
2012-5-4,82,71,64,73,68,64,100,89,68,30.03,29.84,12,0,21,0.02
2012-5-5,84,71,64,73,68,63,100,90,65,29.96,29.82,5,0,5,0.02
2012-5-6,72,66,60,65,62,60,100,89,78,30.05,29.94,3,0,5,0.02
2012-5-7,72,64,57,61,57,50,99,81,62,30.09,29.98,12,1,15,0.00
2012-5-8,74,67,59,68,62,51,96,85,68,30.01,29.77,10,1,15,0.00
2012-5-9,74,66,57,68,63,57,100,90,70,29.78,29.62,16,1,17,0.01
2012-5-10,67,60,54,58,50,45,100,73,48,29.92,29.57,17,3,20,0.00
2012-5-11,73,62,50,48,44,40,75,55,36,30.16,29.92,14,2,15,0.00
2012-5-12,80,67,52,57,51,46,82,58,32,30.27,30.16,9,0,9,0.00
2012-5-13,83,70,60,66,61,55,87,72,54,30.18,30.07,11,1,12,0.00
2012-5-14,71,66,61,68,64,61,100,95,77,30.10,29.98,10,0,13,0.00
2012-5-15,80,71,65,72,68,65,100,92,72,29.99,29.86,9,0,9,0.01
2012-5-16,83,72,62,68,65,61,100,82,49,29.91,29.83,6,0,7,0.01
2012-5-17,77,68,61,67,56,47,93,66,37,30.09,29.89,11,0,11,0.00
2012-5-18,78,66,54,57,53,49,95,66,44,30.17,30.07,5,0,6,0.00
2012-5-19,85,69,55,60,54,47,78,60,40,30.16,30.05,5,0,5,0.00
2012-5-20,82,71,60,67,58,48,95,66,46,30.14,30.05,7,0,11,0.00
2012-5-21,74,68,64,71,67,64,100,97,87,30.05,29.88,6,0,7,0.00
2012-5-22,80,70,65,71,68,65,100,92,72,29.88,29.77,5,0,5,0.42
2012-5-23,83,71,65,73,68,65,100,93,71,29.94,29.79,7,0,7,0.20
2012-5-24,84,74,67,72,69,66,100,87,64,30.05,29.94,11,0,11,0.20
2012-5-25,88,77,70,78,72,69,100,87,66,30.12,30.04,9,0,9,0.00
2012-5-26,89,78,69,78,73,69,100,85,64,30.14,30.05,8,0,8,0.00
2012-5-27,89,78,69,75,72,68,100,82,59,30.16,30.01,14,0,23,0.14
2012-5-28,94,79,68,80,73,67,100,84,63,30.04,29.90,9,0,10,0.00
2012-5-29,91,80,70,78,74,69,100,84,65,29.91,29.70,17,1,17,0.28
2012-5-30,85,75,67,72,68,64,100,81,55,29.79,29.68,6,0,6,0.01
2012-5-31,84,76,68,67,62,59,84,63,45,29.87,29.69,10,1,11,0.00
2012-6-1,81,72,65,75,69,59,100,89,65,29.87,29.63,11,0,13,1.37
2012-6-2,75,66,60,65,57,53,100,73,50,29.81,29.68,13,1,15,1.37
2012-6-3,80,68,56,62,57,53,89,68,50,29.83,29.69,10,1,11,0.00
2012-6-4,73,68,61,58,56,54,85,66,54,29.73,29.62,20,2,20,0.00
2012-6-5,71,63,58,58,56,53,97,77,57,29.93,29.72,6,0,7,0.01
2012-6-6,76,63,55,62,56,53,99,81,51,29.99,29.92,7,0,7,0.49
2012-6-7,80,68,56,64,59,56,100,76,51,30.00,29.91,10,0,13,0.00
2012-6-8,84,72,60,62,59,55,88,65,43,30.00,29.88,13,1,14,0.00
2012-6-9,90,78,66,67,62,59,83,60,37,29.97,29.91,9,1,10,0.00
2012-6-10,96,81,68,70,66,62,88,62,40,30.08,29.97,9,0,9,0.00
2012-6-11,89,80,70,72,69,68,94,72,52,30.11,30.02,12,0,14,0.00
2012-6-12,77,73,69,76,72,68,100,97,77,30.04,29.79,9,0,9,0.28
2012-6-13,82,73,68,72,63,56,100,74,44,30.02,29.79,11,1,14,0.00
2012-6-14,82,73,66,70,64,58,87,74,60,30.19,30.01,4,0,5,0.00
2012-6-15,83,72,62,66,63,58,100,75,52,30.25,30.17,5,0,5,0.00
2012-6-16,84,71,61,64,59,56,89,67,48,30.30,30.16,5,0,6,0.00
2012-6-17,79,69,59,66,61,55,93,76,62,30.19,30.02,7,0,9,0.00
2012-6-18,69,66,62,67,63,60,100,92,86,30.09,30.02,6,0,8,0.14
2012-6-19,92,78,67,80,72,66,96,83,64,30.12,30.03,5,0,6,0.00
2012-6-20,98,85,72,78,75,72,100,75,49,30.11,29.96,7,0,9,0.00
2012-6-21,100,88,77,78,76,73,90,68,48,29.97,29.80,9,0,9,0.00
2012-6-22,94,84,73,77,74,69,96,73,51,29.83,29.71,13,1,17,0.01
2012-6-23,89,80,71,72,68,61,97,70,42,29.98,29.82,10,1,10,0.00
2012-6-24,92,81,71,72,67,62,85,64,47,29.99,29.85,8,0,8,0.00
2012-6-25,85,77,69,74,66,52,94,70,40,29.85,29.67,17,2,17,0.00
2012-6-26,79,70,60,58,54,49,72,56,45,29.87,29.77,15,2,18,0.00
2012-6-27,86,76,66,64,59,53,69,56,43,29.90,29.80,15,2,18,0.00
2012-6-28,95,82,67,69,65,60,84,59,39,29.89,29.73,9,0,10,0.00
2012-6-29,102,89,76,83,76,68,82,66,48,29.73,29.63,11,1,12,0.00
2012-7-8,100,89,79,82,78,76,94,73,55,29.83,29.74,12,1,16,0.04
2012-7-9,86,78,72,77,73,67,100,84,56,29.94,29.80,4,0,4,0.32
2012-7-10,91,79,70,76,73,69,100,82,51,30.02,29.92,6,0,7,0.20
2012-7-11,90,79,70,76,71,66,100,79,48,30.13,30.00,7,0,9,0.00
2012-7-12,88,79,69,71,68,65,95,70,48,30.17,30.12,8,0,9,0.00
2012-7-13,89,80,73,71,68,65,83,68,51,30.19,30.13,8,0,8,0.00
2012-7-14,90,77,69,79,73,65,100,87,67,30.18,30.09,8,0,8,0.75
2012-7-15,96,81,74,80,76,74,100,88,57,30.11,29.96,9,0,9,0.04
2012-7-16,93,83,74,80,76,72,97,80,58,29.99,29.80,10,1,14,0.01
2012-7-17,100,88,77,77,74,71,87,66,43,29.88,29.77,9,1,9,0.00
2012-7-18,102,87,78,81,76,73,90,72,49,29.89,29.76,12,0,16,0.00
2012-7-19,95,85,74,78,75,73,100,74,54,29.92,29.79,12,1,16,0.36
2012-7-20,79,74,68,78,74,68,100,98,90,29.95,29.80,6,0,6,0.41
2012-7-21,68,67,66,68,67,66,100,100,100,30.10,29.93,4,0,5,0.25
2012-7-22,83,74,68,76,72,68,100,94,78,30.16,30.08,4,0,5,0.00
2012-7-23,88,81,73,79,76,73,100,86,67,30.10,29.86,8,0,8,0.00
2012-7-24,91,81,73,80,75,72,99,83,70,29.87,29.68,12,1,15,0.00
2012-7-25,89,80,71,74,65,60,83,62,43,29.93,29.75,12,0,13,0.00
2012-7-26,99,85,72,84,76,65,95,76,56,29.83,29.63,11,0,15,0.00
2012-7-27,91,84,76,78,75,73,94,77,63,29.85,29.70,10,1,11,0.00
2012-7-28,93,82,72,77,74,72,100,79,55,29.90,29.81,18,1,24,0.16
2012-7-29,89,79,71,74,72,68,100,80,59,29.99,29.88,9,1,9,0.00
2012-7-30,89,80,72,77,74,71,100,83,61,30.04,29.96,7,0,8,0.00
2012-7-31,90,79,72,77,74,72,100,85,58,30.00,29.85,8,0,10,0.06
2012-8-1,91,78,69,77,73,69,100,85,59,29.89,29.77,6,0,8,0.06
2012-8-2,96,83,73,79,76,72,100,81,52,29.89,29.81,9,0,9,0.00
2012-8-3,94,83,73,80,76,72,97,80,58,29.99,29.89,8,0,10,0.00
2012-8-5,95,84,75,80,77,72,100,81,57,30.09,29.97,17,1,17,0.07
2012-8-6,91,81,76,78,76,74,100,85,61,30.04,29.94,5,0,6,0.00
2012-8-7,88,80,75,79,76,73,99,87,67,29.97,29.91,4,0,4,0.00
2012-8-8,89,82,76,78,76,72,100,84,68,29.95,29.89,6,0,8,0.00
2012-8-9,95,83,73,78,74,67,100,76,51,29.92,29.79,9,0,10,0.00
2012-8-10,86,78,71,76,74,70,100,87,72,29.82,29.69,10,0,12,0.39
2012-8-11,89,78,69,77,73,69,100,87,61,29.87,29.74,6,0,12,0.18
2012-8-12,86,77,70,73,66,64,100,71,52,29.98,29.87,7,0,12,0.00
2012-8-13,90,80,70,74,69,65,88,71,51,30.02,29.90,8,0,10,0.00
2012-8-14,90,80,71,77,74,71,100,83,55,29.93,29.77,8,0,8,0.22
2012-8-15,83,77,71,73,70,69,97,81,66,29.88,29.80,9,1,10,0.00
2012-8-16,88,78,69,70,67,64,91,70,49,29.96,29.85,9,1,14,0.00
2012-8-17,92,79,69,74,70,66,96,74,50,29.90,29.74,13,1,14,0.00
2012-8-18,84,75,66,71,67,63,100,78,51,29.90,29.81,8,0,10,0.18
2012-8-19,76,71,67,72,68,64,100,92,81,29.93,29.86,6,0,10,0.53
2012-8-20,82,71,67,70,68,67,100,91,67,29.94,29.81,8,0,10,0.00
2012-8-21,75,67,64,68,66,64,100,97,77,30.03,29.94,4,0,6,0.00
2012-8-23,89,82,74,74,69,67,81,65,54,30.14,30.06,6,0,6,0.00
2012-8-24,88,78,69,72,69,66,94,77,55,30.14,30.08,9,0,9,0.00
2012-8-25,79,74,69,71,70,65,99,88,67,30.17,30.11,7,0,11,0.20
2012-8-26,82,73,69,78,72,69,100,96,83,30.18,30.12,6,0,8,0.43
2012-8-27,89,78,69,77,73,68,100,86,66,30.13,29.94,7,0,10,0.00
2012-8-28,88,80,73,76,72,66,100,78,51,29.94,29.85,10,1,13,0.03
2012-8-29,87,77,68,68,66,64,85,70,51,29.99,29.88,7,0,8,0.00
2012-8-30,89,78,67,74,69,64,92,76,54,30.09,29.99,7,0,8,0.00
2012-8-31,95,83,71,76,72,67,100,75,45,30.09,29.96,13,1,13,0.00
2012-9-1,92,82,73,79,74,71,100,78,63,30.04,29.95,9,0,10,0.25
2012-9-2,82,77,73,79,75,73,100,96,85,30.01,29.92,5,0,6,0.36
2012-9-3,85,78,73,78,75,73,100,92,76,30.02,29.96,10,0,10,0.01
2012-9-4,90,80,73,79,76,73,100,89,70,29.99,29.83,11,1,13,0.02
2012-9-5,89,81,77,80,77,75,98,88,69,29.84,29.75,12,0,14,0.00
2012-9-6,85,77,71,79,76,71,100,95,76,29.91,29.78,6,0,8,0.28
2012-9-7,92,79,69,79,73,69,100,85,63,29.92,29.80,9,0,10,0.00
2012-9-8,91,75,65,78,72,64,100,92,66,29.84,29.55,23,1,28,0.52
2012-9-9,78,69,61,64,60,55,95,73,50,29.94,29.79,10,2,11,0.00
2012-9-10,74,67,61,59,55,53,83,66,48,30.14,29.93,14,2,14,0.00
2012-9-11,79,67,56,59,54,51,89,66,42,30.29,30.14,7,0,8,0.00
2012-9-12,83,69,57,63,58,54,93,72,48,30.34,30.27,6,0,7,0.00
2012-9-13,83,70,59,66,62,58,98,77,50,30.35,30.24,7,0,7,0.00
2012-9-14,83,71,61,69,65,60,100,83,59,30.25,30.08,6,0,8,0.00
2012-9-15,76,69,63,66,57,51,93,66,51,30.20,30.07,10,1,12,0.00
2012-9-16,74,66,59,60,57,54,88,74,59,30.15,30.04,7,0,8,0.00
2012-9-17,74,66,56,68,63,56,100,90,78,30.09,29.94,7,0,8,0.01
2012-9-18,78,71,64,75,70,64,100,98,88,29.94,29.55,20,2,25,1.12
2012-9-19,70,64,58,64,54,50,100,72,55,30.14,29.79,12,1,12,0.00
2012-9-20,77,64,52,61,56,50,91,76,56,30.16,30.03,8,0,9,0.00
2012-9-21,81,69,57,68,63,56,97,82,64,30.06,29.92,10,0,10,0.00
2012-9-22,85,73,65,72,66,58,96,80,61,29.92,29.75,12,1,15,0.00
2012-9-23,70,61,55,58,51,48,77,70,60,30.09,29.88,14,1,14,0.00
2012-10-1,69,63,61,61,59,57,95,87,66,29.93,29.90,5,0,6,0.01
2012-10-2,70,67,63,70,67,61,100,99,95,29.92,29.84,4,0,4,0.49
2012-10-3,82,74,68,75,72,68,100,92,74,30.08,29.91,5,0,5,0.01
2012-10-4,78,74,70,74,69,59,100,84,67,30.12,30.05,10,1,11,0.01
2012-10-5,80,70,60,66,61,57,91,73,55,30.11,29.92,8,0,13,0.00
2012-10-6,80,65,55,69,59,48,99,82,64,30.02,29.80,15,1,16,0.00
2012-10-7,55,52,48,50,48,44,100,89,68,30.15,29.99,5,0,5,0.14
2012-10-8,53,49,44,48,46,43,100,89,75,30.28,30.14,5,0,6,0.04
2012-10-9,61,54,47,56,52,46,100,93,82,30.19,30.04,5,0,6,0.11
2012-10-10,69,61,56,57,55,48,99,81,61,30.07,29.85,14,1,17,0.00
2012-10-11,62,54,47,48,42,38,84,65,49,30.28,30.06,12,1,15,0.00
2012-10-12,64,53,45,50,44,38,96,73,56,30.41,30.12,15,1,17,0.00
2012-10-13,61,50,41,44,39,35,81,66,48,30.51,30.27,8,0,8,0.00
2012-10-14,75,62,49,61,54,43,95,78,57,30.27,29.91,13,1,15,0.00
2012-10-15,70,66,57,67,62,52,98,88,76,29.91,29.63,12,1,15,0.07
2012-10-16,63,56,50,52,48,45,89,75,59,29.90,29.77,12,1,12,0.00
2012-10-17,69,57,47,56,50,44,95,80,59,30.00,29.89,7,0,8,0.00
2012-10-18,71,62,52,63,58,52,100,87,67,29.94,29.77,13,1,13,0.00
2012-10-19,75,65,54,69,64,54,100,96,77,29.78,29.55,8,0,10,0.63
2012-10-20,67,58,50,54,50,45,99,75,59,29.90,29.64,8,1,9,0.63
2012-10-21,65,57,48,49,46,44,87,68,52,30.11,29.90,12,2,14,0.00
2012-10-22,70,59,50,53,48,44,83,68,47,30.19,30.08,8,0,9,0.00
2012-10-23,81,65,53,63,56,48,87,73,52,30.11,30.00,6,0,6,0.00
2012-10-24,82,69,59,66,60,57,94,75,52,30.10,30.02,7,0,9,0.00
2012-10-25,70,65,61,65,62,60,99,92,78,30.18,30.08,5,0,6,0.00
2012-10-26,70,64,61,65,62,61,100,93,81,30.16,30.01,4,0,6,0.00
2012-10-27,69,63,59,61,58,55,99,86,62,30.01,29.81,9,0,9,0.00
2012-10-28,61,58,53,57,53,48,100,84,67,29.82,29.54,14,1,14,0.11
2012-10-29,53,50,45,53,50,44,100,99,98,29.54,28.59,30,7,37,3.07
2012-10-30,45,42,41,45,42,41,100,100,99,29.45,28.64,22,0,22,0.86
2012-10-31,55,47,40,46,43,40,100,87,67,29.63,29.45,5,0,7,0.01
2012-11-1,52,47,42,44,41,39,89,80,69,29.73,29.63,10,0,11,0.00
2012-11-2,52,47,41,40,38,36,88,72,58,29.91,29.72,16,2,17,0.00
2012-11-3,49,46,43,38,36,34,77,69,64,30.06,29.90,18,3,18,0.00
2012-11-4,51,44,38,38,36,33,89,73,59,30.08,29.98,12,1,13,0.00
2012-11-5,49,43,37,35,33,30,78,67,57,30.17,30.01,10,1,12,0.00
2012-11-6,48,40,33,36,32,29,86,73,57,30.20,29.99,8,0,8,0.00
2012-11-7,44,42,39,35,33,31,83,72,67,29.99,29.85,11,1,11,0.01
2012-11-8,54,46,40,35,28,24,83,51,32,30.02,29.86,17,4,21,0.00
2012-11-9,56,48,40,42,38,34,80,68,54,30.20,30.02,17,2,19,0.00
2012-11-10,66,53,41,48,44,38,97,73,49,30.35,30.20,5,0,6,0.00
2012-11-11,72,57,45,52,48,43,96,74,47,30.44,30.32,8,0,10,0.00
2012-11-12,72,61,50,62,56,48,99,85,69,30.39,30.11,9,0,11,0.01
2012-11-13,64,45,39,62,40,31,99,81,61,30.46,30.12,16,2,19,0.29
2012-11-14,48,41,35,34,32,30,84,72,60,30.54,30.41,8,0,11,0.00
2012-11-15,50,45,39,41,38,32,85,76,68,30.42,30.28,5,0,6,0.00
2012-11-16,53,46,42,38,36,33,81,69,51,30.41,30.27,10,0,10,0.00
2012-11-17,55,46,38,38,34,32,80,65,44,30.57,30.41,7,0,8,0.00
2012-11-18,53,47,42,45,42,38,92,82,70,30.58,30.47,10,0,10,0.00
2012-11-19,55,50,46,46,43,39,83,78,69,30.48,30.19,8,0,8,0.00
2012-11-20,55,50,43,47,45,40,93,82,73,30.19,30.06,6,0,6,0.00
2012-11-21,58,48,40,43,38,33,98,71,45,30.19,30.10,5,0,5,0.00
2012-11-22,59,48,40,39,35,32,76,61,46,30.25,30.13,5,0,6,0.00
2012-11-23,63,50,37,45,38,33,94,66,47,30.13,29.74,21,1,23,0.00
2012-11-24,50,40,35,36,26,24,64,59,53,30.04,29.79,21,4,21,0.00
2012-11-25,43,37,32,29,26,22,73,64,55,30.07,29.93,10,0,12,0.00
2012-11-26,56,44,33,37,32,26,81,64,48,30.19,29.97,7,0,7,0.00
2012-11-27,45,41,37,42,39,35,97,91,69,30.24,30.13,8,0,9,0.05
2012-11-28,48,42,37,36,31,28,89,68,48,30.36,30.21,12,1,14,0.05
2012-11-29,51,41,32,34,30,27,81,66,49,30.44,30.31,8,0,9,0.00
2012-11-30,53,42,33,39,36,31,91,78,55,30.35,30.28,4,0,4,0.00
2012-12-1,50,43,38,45,41,36,97,91,81,30.43,30.31,4,0,4,0.00
2012-12-2,59,48,39,54,46,38,100,92,76,30.37,30.11,8,0,9,0.02
2012-12-3,72,60,51,61,55,50,97,84,66,30.24,30.12,5,0,6,0.00
2012-12-4,73,63,56,60,56,54,96,81,60,30.21,29.98,12,0,12,0.00
2012-12-5,63,54,40,54,43,29,82,65,49,30.27,29.96,17,3,17,0.00
2012-12-6,45,38,34,32,28,25,81,67,54,30.37,30.23,8,0,9,0.00
2012-12-7,50,45,37,49,42,32,100,89,79,30.22,29.94,8,0,8,0.04
2012-12-8,56,51,49,54,51,49,100,99,93,29.99,29.87,7,0,7,0.04
2012-12-9,52,51,49,52,50,49,100,100,95,30.14,29.95,12,1,12,0.13
2012-12-10,64,57,50,63,56,50,100,99,94,29.95,29.55,8,0,9,0.02
2012-12-11,61,47,42,60,40,32,98,76,62,30.20,29.60,18,2,20,0.09
2012-12-12,46,42,39,35,33,31,76,71,62,30.41,30.19,6,0,7,0.09
2012-12-13,49,41,36,33,30,28,77,66,49,30.44,30.32,7,0,8,0.00
2012-12-14,55,42,30,39,33,27,88,72,52,30.33,30.19,9,0,9,0.00
2012-12-15,53,45,38,42,38,33,88,74,60,30.28,30.10,7,0,7,0.00
2012-12-16,50,48,45,49,47,42,100,96,82,30.12,29.80,6,0,6,0.16
2012-12-17,55,51,49,54,51,49,100,100,100,29.83,29.52,8,0,10,0.06
2012-12-18,60,52,42,55,46,36,100,83,60,29.79,29.50,19,2,23,0.01
2012-12-19,54,46,36,44,39,35,96,78,66,30.16,29.78,16,1,16,0.00
2012-12-20,52,45,40,52,40,36,100,83,69,30.18,29.39,11,1,16,0.59
2012-12-21,57,44,39,57,36,27,100,73,60,29.54,29.23,23,4,25,0.35
2012-12-22,43,39,35,30,28,25,69,63,54,30.02,29.54,29,6,29,0.00
2012-12-23,47,38,28,30,27,23,82,65,47,30.05,29.88,10,0,13,0.00
2012-12-24,41,38,34,38,34,29,100,86,65,30.09,29.87,11,0,11,0.13
2012-12-25,50,42,34,44,38,34,100,88,66,30.22,29.88,12,1,12,0.13
2012-12-26,42,37,32,42,35,31,100,94,77,30.23,29.36,16,3,21,1.38
2012-12-27,42,38,37,38,33,29,100,81,68,30.00,29.38,22,5,23,0.02
2012-12-28,43,38,34,33,31,30,84,76,66,30.13,29.99,12,1,12,0.00
2012-12-29,43,38,34,39,35,32,99,87,74,30.02,29.55,21,1,22,0.17
2012-12-30,41,38,32,33,27,24,76,66,56,30.32,29.79,27,5,27,0.00
2012-12-31,41,36,29,31,27,24,83,73,61,30.31,29.97,7,0,8,0.00
2013-1-1,45,42,40,36,32,28,77,69,60,30.00,29.88,8,0,10,0.00